JST564 YSSY-YBBN
Flight info
| Callsign | JST564 |
|---|---|
| Flight time | 1h 13m |
| Altitude | 37000 |
| Route | SY3/25 TESAT H252 OLSEM Y193 BANDA H252 BN |
| Aircraft | A320/M-SDE3FGHIRWY/LB1 |
Departure
| Time | 2026-05-07 07:11 |
|---|---|
| Airport | Sydney Kingsford Smith International Airport (YSSY) |
Arrival
| Time | 2026-05-07 08:24 |
|---|---|
| Airport | Brisbane International Airport (YBBN) |
| Time | Latitude | Longitude | Altitude | Speed | Heading |
|---|---|---|---|---|---|
| 2026-05-07 06:51 | -33.93598 | 151.17748 | 30 ft | 0 kts | 302° |
| 2026-05-07 07:01 | -33.93607 | 151.17765 | 30 ft | 4 kts | 296° |
| 2026-05-07 07:01 | -33.93615 | 151.17795 | 30 ft | 4 kts | 270° |
| 2026-05-07 07:01 | -33.93610 | 151.17818 | 30 ft | 3 kts | 198° |
| 2026-05-07 07:01 | -33.93606 | 151.17820 | 30 ft | 0 kts | 190° |
| 2026-05-07 07:05 | -33.93611 | 151.17819 | 30 ft | 2 kts | 190° |
| 2026-05-07 07:05 | -33.93633 | 151.17814 | 30 ft | 5 kts | 190° |
| 2026-05-07 07:05 | -33.93682 | 151.17802 | 30 ft | 9 kts | 193° |
| 2026-05-07 07:05 | -33.93749 | 151.17787 | 30 ft | 7 kts | 165° |
| 2026-05-07 07:06 | -33.93789 | 151.17849 | 30 ft | 11 kts | 118° |
| 2026-05-07 07:06 | -33.93797 | 151.17950 | 30 ft | 14 kts | 78° |
| 2026-05-07 07:06 | -33.93770 | 151.18070 | 30 ft | 16 kts | 75° |
| 2026-05-07 07:06 | -33.93739 | 151.18207 | 30 ft | 18 kts | 73° |
| 2026-05-07 07:07 | -33.93706 | 151.18340 | 30 ft | 17 kts | 74° |
| 2026-05-07 07:07 | -33.93683 | 151.18436 | 30 ft | 12 kts | 75° |
| 2026-05-07 07:07 | -33.93656 | 151.18552 | 30 ft | 16 kts | 74° |
| 2026-05-07 07:07 | -33.93624 | 151.18686 | 30 ft | 17 kts | 74° |
| 2026-05-07 07:08 | -33.93626 | 151.18795 | 30 ft | 12 kts | 131° |
| 2026-05-07 07:08 | -33.93680 | 151.18817 | 29 ft | 7 kts | 167° |
| 2026-05-07 07:08 | -33.93691 | 151.18821 | 28 ft | 0 kts | 166° |
| 2026-05-07 07:09 | -33.93706 | 151.18825 | 28 ft | 4 kts | 165° |
| 2026-05-07 07:09 | -33.93754 | 151.18841 | 28 ft | 10 kts | 165° |
| 2026-05-07 07:10 | -33.93788 | 151.18824 | 28 ft | 6 kts | 240° |
| 2026-05-07 07:10 | -33.93819 | 151.18712 | 26 ft | 37 kts | 254° |
| 2026-05-07 07:10 | -33.93946 | 151.18164 | 30 ft | 97 kts | 254° |
| 2026-05-07 07:10 | -33.94171 | 151.17195 | 55 ft | 139 kts | 257° |
| 2026-05-07 07:11 | -33.94464 | 151.16097 | 661 ft | 136 kts | 253° |
| 2026-05-07 07:11 | -33.94485 | 151.14980 | 1249 ft | 143 kts | 287° |
| 2026-05-07 07:11 | -33.93829 | 151.14015 | 1835 ft | 156 kts | 306° |
| 2026-05-07 07:11 | -33.92979 | 151.13100 | 2122 ft | 173 kts | 310° |
| 2026-05-07 07:12 | -33.92023 | 151.12121 | 2497 ft | 187 kts | 311° |
| 2026-05-07 07:12 | -33.90977 | 151.11051 | 2819 ft | 209 kts | 311° |
| 2026-05-07 07:12 | -33.89657 | 151.10061 | 3165 ft | 246 kts | 338° |
| 2026-05-07 07:12 | -33.87839 | 151.10127 | 3651 ft | 283 kts | 15° |
| 2026-05-07 07:13 | -33.86179 | 151.11496 | 4400 ft | 300 kts | 50° |
| 2026-05-07 07:13 | -33.85140 | 151.13694 | 5100 ft | 308 kts | 71° |
| 2026-05-07 07:13 | -33.84430 | 151.16105 | 6102 ft | 304 kts | 75° |
| 2026-05-07 07:13 | -33.83746 | 151.18504 | 7082 ft | 303 kts | 75° |
| 2026-05-07 07:14 | -33.82995 | 151.20878 | 7919 ft | 308 kts | 71° |
| 2026-05-07 07:14 | -33.82096 | 151.23238 | 8745 ft | 312 kts | 67° |
| 2026-05-07 07:14 | -33.81092 | 151.25586 | 9556 ft | 317 kts | 65° |
| 2026-05-07 07:14 | -33.80022 | 151.27930 | 10298 ft | 324 kts | 64° |
| 2026-05-07 07:15 | -33.78876 | 151.30378 | 10511 ft | 348 kts | 63° |
| 2026-05-07 07:15 | -33.77649 | 151.32983 | 10757 ft | 367 kts | 63° |
| 2026-05-07 07:15 | -33.76392 | 151.35645 | 11337 ft | 374 kts | 62° |
| 2026-05-07 07:15 | -33.75086 | 151.38415 | 12002 ft | 378 kts | 62° |
| 2026-05-07 07:16 | -33.73788 | 151.41180 | 12684 ft | 381 kts | 62° |
| 2026-05-07 07:16 | -33.72505 | 151.43932 | 13362 ft | 384 kts | 62° |
| 2026-05-07 07:16 | -33.71192 | 151.46753 | 13946 ft | 389 kts | 61° |
| 2026-05-07 07:16 | -33.69859 | 151.49609 | 14494 ft | 394 kts | 61° |
| 2026-05-07 07:17 | -33.68515 | 151.52492 | 15042 ft | 398 kts | 61° |
| 2026-05-07 07:17 | -33.67155 | 151.55409 | 15594 ft | 402 kts | 61° |
| 2026-05-07 07:17 | -33.65686 | 151.58282 | 16145 ft | 405 kts | 53° |
| 2026-05-07 07:17 | -33.63840 | 151.60843 | 16685 ft | 407 kts | 41° |
| 2026-05-07 07:18 | -33.61642 | 151.62991 | 17239 ft | 407 kts | 30° |
| 2026-05-07 07:18 | -33.59289 | 151.64823 | 17850 ft | 408 kts | 30° |
| 2026-05-07 07:18 | -33.56901 | 151.66684 | 18447 ft | 411 kts | 30° |
| 2026-05-07 07:18 | -33.54499 | 151.68564 | 18914 ft | 414 kts | 28° |
| 2026-05-07 07:19 | -33.52070 | 151.70471 | 19346 ft | 419 kts | 27° |
| 2026-05-07 07:19 | -33.49538 | 151.72173 | 19820 ft | 417 kts | 18° |
| 2026-05-07 07:19 | -33.46838 | 151.73385 | 20318 ft | 412 kts | 9° |
| 2026-05-07 07:19 | -33.44071 | 151.74284 | 20818 ft | 413 kts | 8° |
| 2026-05-07 07:20 | -33.41286 | 151.75184 | 21315 ft | 416 kts | 7° |
| 2026-05-07 07:20 | -33.38488 | 151.76089 | 21783 ft | 418 kts | 7° |
| 2026-05-07 07:20 | -33.35669 | 151.77002 | 22242 ft | 421 kts | 7° |
| 2026-05-07 07:20 | -33.32836 | 151.77917 | 22661 ft | 423 kts | 6° |
| 2026-05-07 07:21 | -33.29983 | 151.78837 | 23133 ft | 425 kts | 6° |
| 2026-05-07 07:21 | -33.27120 | 151.79762 | 23589 ft | 428 kts | 6° |
| 2026-05-07 07:21 | -33.24238 | 151.80693 | 23970 ft | 430 kts | 6° |
| 2026-05-07 07:21 | -33.21337 | 151.81627 | 24337 ft | 432 kts | 6° |
| 2026-05-07 07:22 | -33.18425 | 151.82562 | 24703 ft | 435 kts | 6° |
| 2026-05-07 07:22 | -33.15490 | 151.83507 | 25067 ft | 437 kts | 6° |
| 2026-05-07 07:22 | -33.12548 | 151.84457 | 25422 ft | 439 kts | 6° |
| 2026-05-07 07:22 | -33.09587 | 151.85412 | 25708 ft | 442 kts | 5° |
| 2026-05-07 07:23 | -33.06617 | 151.86367 | 26061 ft | 444 kts | 5° |
| 2026-05-07 07:23 | -33.03623 | 151.87325 | 26408 ft | 446 kts | 5° |
| 2026-05-07 07:23 | -33.00623 | 151.88282 | 26752 ft | 448 kts | 5° |
| 2026-05-07 07:23 | -32.97600 | 151.89249 | 27108 ft | 450 kts | 5° |
| 2026-05-07 07:24 | -32.94569 | 151.90222 | 27463 ft | 452 kts | 5° |
| 2026-05-07 07:24 | -32.91518 | 151.91203 | 27812 ft | 455 kts | 5° |
| 2026-05-07 07:24 | -32.88495 | 151.92171 | 28083 ft | 456 kts | 5° |
| 2026-05-07 07:24 | -32.85432 | 151.93151 | 28505 ft | 456 kts | 4° |
| 2026-05-07 07:25 | -32.79333 | 151.95108 | 29567 ft | 451 kts | 4° |
| 2026-05-07 07:25 | -32.76318 | 151.96083 | 30169 ft | 447 kts | 4° |
| 2026-05-07 07:25 | -32.73326 | 151.97040 | 30618 ft | 445 kts | 3° |
| 2026-05-07 07:26 | -32.70338 | 151.97990 | 31008 ft | 444 kts | 3° |
| 2026-05-07 07:26 | -32.67348 | 151.98935 | 31367 ft | 444 kts | 2° |
| 2026-05-07 07:26 | -32.64359 | 151.99879 | 31734 ft | 444 kts | 2° |
| 2026-05-07 07:26 | -32.61372 | 152.00825 | 32107 ft | 445 kts | 2° |
| 2026-05-07 07:27 | -32.58388 | 152.01771 | 32483 ft | 445 kts | 2° |
| 2026-05-07 07:27 | -32.55395 | 152.02723 | 32853 ft | 445 kts | 1° |
| 2026-05-07 07:27 | -32.52409 | 152.03672 | 33233 ft | 445 kts | 1° |
| 2026-05-07 07:27 | -32.49417 | 152.04622 | 33622 ft | 445 kts | 1° |
| 2026-05-07 07:28 | -32.46422 | 152.05573 | 34006 ft | 445 kts | 1° |
| 2026-05-07 07:28 | -32.43440 | 152.06518 | 34354 ft | 442 kts | 0° |
| 2026-05-07 07:28 | -32.40483 | 152.07457 | 34758 ft | 439 kts | 0° |
| 2026-05-07 07:28 | -32.37531 | 152.08391 | 35068 ft | 438 kts | 0° |
| 2026-05-07 07:29 | -32.34584 | 152.09320 | 35335 ft | 439 kts | 1° |
| 2026-05-07 07:29 | -32.31633 | 152.10251 | 35605 ft | 439 kts | 1° |
| 2026-05-07 07:29 | -32.28679 | 152.11182 | 35871 ft | 440 kts | 1° |
| 2026-05-07 07:29 | -32.25720 | 152.12116 | 36120 ft | 440 kts | 1° |
| 2026-05-07 07:30 | -32.22756 | 152.13052 | 36296 ft | 441 kts | 1° |
| 2026-05-07 07:30 | -32.19799 | 152.13986 | 36646 ft | 438 kts | 1° |
| 2026-05-07 07:30 | -32.16858 | 152.14914 | 36964 ft | 437 kts | 1° |
| 2026-05-07 07:30 | -32.13914 | 152.15839 | 37068 ft | 439 kts | 1° |
| 2026-05-07 07:31 | -32.10977 | 152.16755 | 37083 ft | 444 kts | 1° |
| 2026-05-07 07:31 | -32.04970 | 152.18627 | 37083 ft | 448 kts | 1° |
| 2026-05-07 07:32 | -31.98938 | 152.20531 | 37070 ft | 447 kts | 1° |
| 2026-05-07 07:32 | -31.92960 | 152.22414 | 37083 ft | 444 kts | 1° |
| 2026-05-07 07:33 | -31.86997 | 152.24272 | 37084 ft | 442 kts | 0° |
| 2026-05-07 07:33 | -31.81040 | 152.26123 | 37090 ft | 443 kts | 1° |
| 2026-05-07 07:34 | -31.75089 | 152.27978 | 37064 ft | 440 kts | 0° |
| 2026-05-07 07:34 | -31.69178 | 152.29819 | 37089 ft | 438 kts | 0° |
| 2026-05-07 07:35 | -31.63292 | 152.31656 | 37103 ft | 437 kts | 0° |
| 2026-05-07 07:35 | -31.57411 | 152.33488 | 37103 ft | 437 kts | 0° |
| 2026-05-07 07:36 | -31.51576 | 152.35293 | 37093 ft | 436 kts | 0° |
| 2026-05-07 07:36 | -31.45714 | 152.37102 | 37102 ft | 435 kts | 0° |
| 2026-05-07 07:37 | -31.39866 | 152.38911 | 37101 ft | 435 kts | 0° |
| 2026-05-07 07:37 | -31.34021 | 152.40724 | 37094 ft | 434 kts | 0° |
| 2026-05-07 07:38 | -31.28184 | 152.42533 | 37073 ft | 433 kts | 0° |
| 2026-05-07 07:38 | -31.22362 | 152.44325 | 37090 ft | 432 kts | 0° |
| 2026-05-07 07:39 | -31.16560 | 152.46106 | 37090 ft | 430 kts | 0° |
| 2026-05-07 07:39 | -31.10809 | 152.47874 | 37093 ft | 431 kts | 0° |
| 2026-05-07 07:40 | -31.05029 | 152.49650 | 37060 ft | 428 kts | 0° |
| 2026-05-07 07:40 | -30.99273 | 152.51420 | 37078 ft | 428 kts | 0° |
| 2026-05-07 07:41 | -30.93519 | 152.53187 | 37102 ft | 427 kts | 360° |
| 2026-05-07 07:41 | -30.87761 | 152.54939 | 37095 ft | 427 kts | 360° |
| 2026-05-07 07:42 | -30.82018 | 152.56690 | 37058 ft | 427 kts | 0° |
| 2026-05-07 07:42 | -30.76271 | 152.58533 | 37055 ft | 431 kts | 2° |
| 2026-05-07 07:43 | -30.70537 | 152.60649 | 37063 ft | 433 kts | 3° |
| 2026-05-07 07:43 | -30.65758 | 152.62453 | 37078 ft | 435 kts | 3° |
| 2026-05-07 07:44 | -30.59034 | 152.64935 | 37043 ft | 433 kts | 2° |
| 2026-05-07 07:44 | -30.54245 | 152.66661 | 37065 ft | 434 kts | 2° |
| 2026-05-07 07:45 | -30.48480 | 152.68734 | 37081 ft | 434 kts | 2° |
| 2026-05-07 07:45 | -30.42712 | 152.70814 | 37082 ft | 434 kts | 2° |
| 2026-05-07 07:46 | -30.36950 | 152.72895 | 37081 ft | 433 kts | 2° |
| 2026-05-07 07:46 | -30.31205 | 152.74962 | 37081 ft | 433 kts | 2° |
| 2026-05-07 07:47 | -30.25447 | 152.77031 | 37071 ft | 433 kts | 2° |
| 2026-05-07 07:47 | -30.19688 | 152.79101 | 37071 ft | 433 kts | 2° |
| 2026-05-07 07:48 | -30.13936 | 152.81163 | 37025 ft | 433 kts | 2° |
| 2026-05-07 07:48 | -30.08183 | 152.83221 | 37074 ft | 433 kts | 2° |
| 2026-05-07 07:49 | -30.02469 | 152.85260 | 37065 ft | 433 kts | 2° |
| 2026-05-07 07:49 | -29.96706 | 152.87323 | 37054 ft | 433 kts | 2° |
| 2026-05-07 07:50 | -29.90947 | 152.89383 | 37014 ft | 434 kts | 2° |
| 2026-05-07 07:50 | -29.85178 | 152.91441 | 37025 ft | 434 kts | 1° |
| 2026-05-07 07:51 | -29.79403 | 152.93496 | 37034 ft | 434 kts | 1° |
| 2026-05-07 07:51 | -29.73626 | 152.95549 | 37036 ft | 435 kts | 1° |
| 2026-05-07 07:52 | -29.67837 | 152.97598 | 36975 ft | 435 kts | 1° |
| 2026-05-07 07:52 | -29.62043 | 152.99653 | 37036 ft | 437 kts | 1° |
| 2026-05-07 07:53 | -29.56235 | 153.01712 | 37042 ft | 437 kts | 1° |
| 2026-05-07 07:53 | -29.50430 | 153.03778 | 37048 ft | 437 kts | 2° |
| 2026-05-07 07:54 | -29.44625 | 153.05839 | 36990 ft | 436 kts | 1° |
| 2026-05-07 07:54 | -29.38863 | 153.07866 | 37017 ft | 436 kts | 1° |
| 2026-05-07 07:55 | -29.33056 | 153.09907 | 37032 ft | 436 kts | 2° |
| 2026-05-07 07:55 | -29.27251 | 153.11953 | 37046 ft | 436 kts | 1° |
| 2026-05-07 07:56 | -29.21445 | 153.14002 | 37058 ft | 436 kts | 1° |
| 2026-05-07 07:56 | -29.15650 | 153.16050 | 37018 ft | 436 kts | 1° |
| 2026-05-07 07:57 | -29.09851 | 153.18078 | 37032 ft | 436 kts | 1° |
| 2026-05-07 07:57 | -29.04089 | 153.20093 | 37049 ft | 436 kts | 1° |
| 2026-05-07 07:58 | -28.98292 | 153.22130 | 37045 ft | 436 kts | 1° |
| 2026-05-07 07:58 | -28.92497 | 153.24161 | 37000 ft | 436 kts | 1° |
| 2026-05-07 07:59 | -28.86706 | 153.26186 | 37046 ft | 434 kts | 1° |
| 2026-05-07 07:59 | -28.80944 | 153.28197 | 37064 ft | 432 kts | 1° |
| 2026-05-07 08:00 | -28.75207 | 153.30194 | 37067 ft | 430 kts | 1° |
| 2026-05-07 08:00 | -28.69494 | 153.32185 | 37030 ft | 429 kts | 1° |
| 2026-05-07 08:00 | -28.66646 | 153.33183 | 36321 ft | 427 kts | 2° |
| 2026-05-07 08:01 | -28.63762 | 153.34178 | 34737 ft | 441 kts | 2° |
| 2026-05-07 08:01 | -28.60787 | 153.35189 | 33213 ft | 450 kts | 2° |
| 2026-05-07 08:01 | -28.57775 | 153.36223 | 31896 ft | 452 kts | 4° |
| 2026-05-07 08:01 | -28.54821 | 153.37257 | 30777 ft | 448 kts | 4° |
| 2026-05-07 08:02 | -28.51860 | 153.38303 | 29714 ft | 442 kts | 4° |
| 2026-05-07 08:02 | -28.48945 | 153.39338 | 28569 ft | 436 kts | 5° |
| 2026-05-07 08:02 | -28.46061 | 153.40356 | 27470 ft | 434 kts | 5° |
| 2026-05-07 08:02 | -28.43189 | 153.41353 | 26950 ft | 428 kts | 5° |
| 2026-05-07 08:03 | -28.40357 | 153.42333 | 26429 ft | 423 kts | 6° |
| 2026-05-07 08:03 | -28.37557 | 153.43300 | 25910 ft | 419 kts | 6° |
| 2026-05-07 08:03 | -28.34785 | 153.44254 | 25416 ft | 414 kts | 6° |
| 2026-05-07 08:03 | -28.32037 | 153.45199 | 24918 ft | 410 kts | 6° |
| 2026-05-07 08:04 | -28.29321 | 153.46135 | 24444 ft | 406 kts | 6° |
| 2026-05-07 08:04 | -28.26627 | 153.47065 | 23979 ft | 403 kts | 6° |
| 2026-05-07 08:04 | -28.23954 | 153.47986 | 23520 ft | 400 kts | 6° |
| 2026-05-07 08:04 | -28.21302 | 153.48898 | 23011 ft | 397 kts | 7° |
| 2026-05-07 08:05 | -28.18674 | 153.49686 | 22595 ft | 383 kts | 360° |
| 2026-05-07 08:05 | -28.16079 | 153.49955 | 22172 ft | 366 kts | 350° |
| 2026-05-07 08:05 | -28.13591 | 153.49726 | 21757 ft | 352 kts | 341° |
| 2026-05-07 08:05 | -28.11207 | 153.49224 | 21390 ft | 346 kts | 340° |
| 2026-05-07 08:06 | -28.08850 | 153.48733 | 20980 ft | 343 kts | 341° |
| 2026-05-07 08:06 | -28.06517 | 153.48254 | 20562 ft | 339 kts | 341° |
| 2026-05-07 08:06 | -28.04201 | 153.47779 | 20147 ft | 337 kts | 341° |
| 2026-05-07 08:06 | -28.01903 | 153.47305 | 19725 ft | 335 kts | 341° |
| 2026-05-07 08:07 | -27.99615 | 153.46832 | 19298 ft | 333 kts | 342° |
| 2026-05-07 08:07 | -27.97335 | 153.46360 | 18869 ft | 332 kts | 342° |
| 2026-05-07 08:07 | -27.95064 | 153.45891 | 18435 ft | 332 kts | 342° |
| 2026-05-07 08:07 | -27.92761 | 153.45408 | 17958 ft | 344 kts | 342° |
| 2026-05-07 08:08 | -27.90379 | 153.44905 | 17496 ft | 350 kts | 343° |
| 2026-05-07 08:08 | -27.87944 | 153.44396 | 17027 ft | 360 kts | 343° |
| 2026-05-07 08:08 | -27.85491 | 153.43894 | 16553 ft | 355 kts | 343° |
| 2026-05-07 08:08 | -27.83075 | 153.43407 | 16080 ft | 352 kts | 344° |
| 2026-05-07 08:09 | -27.80675 | 153.42924 | 15590 ft | 349 kts | 344° |
| 2026-05-07 08:09 | -27.78293 | 153.42437 | 15098 ft | 347 kts | 344° |
| 2026-05-07 08:09 | -27.75921 | 153.41948 | 14599 ft | 345 kts | 344° |
| 2026-05-07 08:09 | -27.73593 | 153.41465 | 14113 ft | 344 kts | 344° |
| 2026-05-07 08:10 | -27.71241 | 153.40976 | 13597 ft | 343 kts | 344° |
| 2026-05-07 08:10 | -27.68899 | 153.40490 | 13094 ft | 341 kts | 345° |
| 2026-05-07 08:10 | -27.66572 | 153.40009 | 12607 ft | 339 kts | 345° |
| 2026-05-07 08:10 | -27.64257 | 153.39564 | 12128 ft | 338 kts | 349° |
| 2026-05-07 08:11 | -27.61902 | 153.39536 | 11747 ft | 337 kts | 358° |
| 2026-05-07 08:11 | -27.59585 | 153.39653 | 11424 ft | 331 kts | 358° |
| 2026-05-07 08:11 | -27.57299 | 153.39761 | 11092 ft | 327 kts | 357° |
| 2026-05-07 08:11 | -27.55035 | 153.39864 | 10762 ft | 324 kts | 357° |
| 2026-05-07 08:12 | -27.52792 | 153.39965 | 10440 ft | 321 kts | 357° |
| 2026-05-07 08:12 | -27.50591 | 153.40065 | 10294 ft | 311 kts | 357° |
| 2026-05-07 08:12 | -27.48465 | 153.40161 | 10175 ft | 300 kts | 357° |
| 2026-05-07 08:12 | -27.46409 | 153.40254 | 10013 ft | 292 kts | 357° |
| 2026-05-07 08:13 | -27.44395 | 153.40342 | 9822 ft | 287 kts | 357° |
| 2026-05-07 08:13 | -27.42404 | 153.40430 | 9628 ft | 286 kts | 357° |
| 2026-05-07 08:13 | -27.40416 | 153.40521 | 9396 ft | 285 kts | 357° |
| 2026-05-07 08:13 | -27.38428 | 153.40612 | 9192 ft | 285 kts | 357° |
| 2026-05-07 08:14 | -27.36445 | 153.40702 | 8961 ft | 285 kts | 357° |
| 2026-05-07 08:14 | -27.34469 | 153.40793 | 8668 ft | 284 kts | 357° |
| 2026-05-07 08:14 | -27.32501 | 153.40884 | 8384 ft | 283 kts | 357° |
| 2026-05-07 08:14 | -27.30541 | 153.40974 | 8100 ft | 282 kts | 357° |
| 2026-05-07 08:15 | -27.28584 | 153.41063 | 7819 ft | 281 kts | 357° |
| 2026-05-07 08:15 | -27.26630 | 153.41151 | 7537 ft | 281 kts | 357° |
| 2026-05-07 08:15 | -27.24680 | 153.41240 | 7262 ft | 280 kts | 357° |
| 2026-05-07 08:15 | -27.22737 | 153.41329 | 6980 ft | 279 kts | 357° |
| 2026-05-07 08:16 | -27.20818 | 153.41271 | 6698 ft | 272 kts | 345° |
| 2026-05-07 08:16 | -27.19057 | 153.40674 | 6431 ft | 265 kts | 330° |
| 2026-05-07 08:16 | -27.17504 | 153.39564 | 6136 ft | 260 kts | 316° |
| 2026-05-07 08:16 | -27.16143 | 153.38274 | 5863 ft | 259 kts | 315° |
| 2026-05-07 08:17 | -27.14779 | 153.36995 | 5730 ft | 252 kts | 315° |
| 2026-05-07 08:17 | -27.13623 | 153.35602 | 5641 ft | 235 kts | 296° |
| 2026-05-07 08:17 | -27.13123 | 153.33934 | 5559 ft | 220 kts | 274° |
| 2026-05-07 08:17 | -27.13278 | 153.32265 | 5348 ft | 214 kts | 251° |
| 2026-05-07 08:18 | -27.13894 | 153.30759 | 5153 ft | 210 kts | 245° |
| 2026-05-07 08:18 | -27.14519 | 153.29303 | 4960 ft | 205 kts | 246° |
| 2026-05-07 08:18 | -27.15125 | 153.27878 | 4769 ft | 200 kts | 246° |
| 2026-05-07 08:18 | -27.15729 | 153.26486 | 4606 ft | 197 kts | 241° |
| 2026-05-07 08:19 | -27.16652 | 153.25338 | 4442 ft | 202 kts | 218° |
| 2026-05-07 08:19 | -27.17893 | 153.24583 | 4203 ft | 203 kts | 211° |
| 2026-05-07 08:19 | -27.19151 | 153.23875 | 3939 ft | 202 kts | 211° |
| 2026-05-07 08:19 | -27.20399 | 153.23167 | 3686 ft | 200 kts | 211° |
| 2026-05-07 08:20 | -27.21636 | 153.22464 | 3429 ft | 198 kts | 211° |
| 2026-05-07 08:20 | -27.22860 | 153.21767 | 3169 ft | 196 kts | 211° |
| 2026-05-07 08:20 | -27.24072 | 153.21076 | 2904 ft | 194 kts | 211° |
| 2026-05-07 08:20 | -27.25260 | 153.20400 | 2652 ft | 187 kts | 211° |
| 2026-05-07 08:21 | -27.26398 | 153.19751 | 2415 ft | 181 kts | 211° |
| 2026-05-07 08:21 | -27.27511 | 153.19116 | 2181 ft | 176 kts | 211° |
| 2026-05-07 08:21 | -27.28540 | 153.18531 | 1972 ft | 159 kts | 212° |
| 2026-05-07 08:21 | -27.29467 | 153.18004 | 1770 ft | 143 kts | 211° |
| 2026-05-07 08:22 | -27.30336 | 153.17506 | 1572 ft | 138 kts | 211° |
| 2026-05-07 08:22 | -27.31182 | 153.17022 | 1386 ft | 136 kts | 211° |
| 2026-05-07 08:22 | -27.32020 | 153.16543 | 1212 ft | 135 kts | 211° |
| 2026-05-07 08:22 | -27.32857 | 153.16066 | 1034 ft | 133 kts | 211° |
| 2026-05-07 08:23 | -27.33685 | 153.15597 | 872 ft | 135 kts | 211° |
| 2026-05-07 08:23 | -27.34523 | 153.15112 | 672 ft | 135 kts | 211° |
| 2026-05-07 08:23 | -27.35361 | 153.14630 | 510 ft | 136 kts | 210° |
| 2026-05-07 08:23 | -27.36207 | 153.14149 | 345 ft | 135 kts | 210° |
| 2026-05-07 08:24 | -27.37038 | 153.13675 | 158 ft | 134 kts | 212° |
| 2026-05-07 08:24 | -27.37869 | 153.13201 | 38 ft | 133 kts | 213° |
| 2026-05-07 08:24 | -27.38600 | 153.12777 | 25 ft | 97 kts | 206° |
| 2026-05-07 08:24 | -27.38940 | 153.12546 | 20 ft | 44 kts | 226° |
| 2026-05-07 08:25 | -27.39091 | 153.12315 | 23 ft | 22 kts | 237° |
| 2026-05-07 08:25 | -27.39136 | 153.12192 | 21 ft | 13 kts | 280° |
| 2026-05-07 08:25 | -27.39058 | 153.12154 | 22 ft | 15 kts | 21° |
| 2026-05-07 08:25 | -27.38961 | 153.12212 | 23 ft | 16 kts | 23° |
| 2026-05-07 08:26 | -27.38866 | 153.12157 | 21 ft | 3 kts | 313° |
| 2026-05-07 08:26 | -27.38841 | 153.12132 | 22 ft | 6 kts | 320° |
| 2026-05-07 08:26 | -27.38798 | 153.12093 | 21 ft | 9 kts | 324° |
| 2026-05-07 08:27 | -27.38728 | 153.12086 | 22 ft | 10 kts | 13° |
| 2026-05-07 08:27 | -27.38670 | 153.12054 | 21 ft | 8 kts | 316° |
| 2026-05-07 08:27 | -27.38655 | 153.12038 | 21 ft | 0 kts | 316° |